PrinceSS Juana K — HPFV — position and weather

sailwx.info

Track history (hours):
 
Tides and Currents Weather Stations Pressure Air Temp Water Temp Dewpoint Dewpoint Depression Visibility Wind Speed Wind Dir Waves Ship Positions

PrinceSS Juana K

Last reported at 2014-Jul-14 05:14 UTC. Time now 2014-Jul-24 08:28 UTC.
Position N 40°19' E 026°36'.
Warning: this ship's position is 10 days out of date.

Length 145 m; draft 5.2 m.

Type: Cargo ship. MMSI: 352982000.

Date/timePositionNaut miles runAvg speedWind from/ knotsBaromVisibWave heightAir tempDewpointWater temp
2014-Jul-14 05:14N 40°19' E 026°36'33 6.4
2014-Jul-14 00:07N 39°59' E 026°02'5 7.6
2014-Jul-13 23:26N 39°56' E 025°57'6 6.8
2014-Jul-13 22:33N 39°50' E 025°54'9 8.1
2014-Jul-13 21:30N 39°42' E 025°52'36 8.3
2014-Jul-13 17:11N 39°06' E 025°46'5 8.4
2014-Jul-13 16:33N 39°01' E 025°47'16 8.3
2014-Jul-13 14:33N 38°45' E 025°47'9 8.5
2014-Jul-13 13:33N 38°36' E 025°46'8 8.2
2014-Jul-13 12:33N 38°28' E 025°46'  
2014-Jul-09 04:29N 37°35' E 025°56'7 7.7
2014-Jul-09 03:33N 37°28' E 025°57'9 8.7
2014-Jul-09 02:33N 37°23' E 026°05'9 8.6
2014-Jul-09 01:33N 37°17' E 026°13'8 8.4
2014-Jul-09 00:33N 37°11' E 026°21'8 8.0
2014-Jul-08 23:33N 37°06' E 026°28'8 7.9
2014-Jul-08 22:31N 36°60' E 026°35'8 8.1
2014-Jul-08 21:32N 36°55' E 026°43'7 7.6
2014-Jul-08 20:33N 36°48' E 026°47'8 7.6
2014-Jul-08 19:33N 36°41' E 026°52'15 7.4
2014-Jul-08 17:29N 36°29' E 027°04'8 7.6
2014-Jul-08 16:25N 36°23' E 027°10'7 7.8
2014-Jul-08 15:33N 36°18' E 027°15'8 8.1
2014-Jul-08 14:33N 36°11' E 027°21'134 6.7
2014-Jul-07 18:32N 34°27' E 029°05'10 7.5
2014-Jul-07 17:11N 34°19' E 029°12'6 7.6
2014-Jul-07 16:22N 34°14' E 029°17'9 7.6
2014-Jul-07 15:09N 34°06' E 029°24'5 7.5
2014-Jul-07 14:33N 34°03' E 029°27'7 7.4
2014-Jul-07 13:33N 33°57' E 029°33'7 7.4
2014-Jul-07 12:33N 33°52' E 029°39'7 7.1
2014-Jul-07 11:33N 33°46' E 029°44'8 7.0
2014-Jul-07 10:23N 33°40' E 029°51'13 7.1
2014-Jul-07 08:33N 33°30' E 030°00'7 7.1
2014-Jul-07 07:33N 33°24' E 030°05'7 7.3
2014-Jul-07 06:33N 33°18' E 030°11'8 7.5
2014-Jul-07 05:33N 33°12' E 030°16'8 7.8
2014-Jul-07 04:33N 33°06' E 030°22'8 7.9
2014-Jul-07 03:32N 32°60' E 030°28'8 8.0
2014-Jul-07 02:33N 32°53' E 030°34'8 8.2
2014-Jul-07 01:33N 32°47' E 030°39'9 8.6
2014-Jul-07 00:33N 32°40' E 030°46'9 8.5
2014-Jul-06 23:33N 32°34' E 030°52'8 8.1
2014-Jul-06 22:32N 32°27' E 030°59'8 7.8
2014-Jul-06 21:33N 32°21' E 031°04'3 1.1
2014-Jul-06 18:33N 32°24' E 031°02'4 3.0
2014-Jul-06 17:09N 32°21' E 031°05'7 4.2
2014-Jul-06 15:33N 32°15' E 031°09'50 1.2
2014-Jul-04 22:29N 31°35' E 031°45'0 0.1
2014-Jul-04 21:31N 31°35' E 031°45'0 0.0
2014-Jul-04 18:15N 31°35' E 031°45'0 0.1
2014-Jul-04 17:33N 31°35' E 031°45'0 0.0
2014-Jul-04 16:08N 31°35' E 031°45'0 0.0
2014-Jul-04 15:23N 31°35' E 031°45'0 0.0
2014-Jul-04 14:31N 31°35' E 031°45'0 0.0
2014-Jul-04 13:12N 31°35' E 031°45'0 0.0
2014-Jul-04 12:33N 31°35' E 031°45'0 0.0
2014-Jul-04 11:34N 31°35' E 031°45'0 0.0
2014-Jul-04 10:28N 31°35' E 031°45'0 0.0
2014-Jul-04 09:27N 31°35' E 031°45'0 0.0
2014-Jul-04 08:33N 31°35' E 031°45'0 0.0
2014-Jul-04 05:33N 31°35' E 031°45'  
Track history (hours):
 
Tides and Currents Weather Stations Pressure Air Temp Water Temp Dewpoint Dewpoint Depression Visibility Wind Speed Wind Dir Waves Ship Positions

PrinceSS Juana K

Last reported at 2014-Jul-14 05:14 UTC. Time now 2014-Jul-24 08:28 UTC.
Position N 40°19' E 026°36'.
Warning: this ship's position is 10 days out of date.

Length 145 m; draft 5.2 m.

Type: Cargo ship. MMSI: 352982000.

Date/timePositionNaut miles runAvg speedWind from/ knotsBaromVisibWave heightAir tempDewpointWater temp
2014-Jul-14 05:14N 40°19' E 026°36'33 6.4
2014-Jul-14 00:07N 39°59' E 026°02'5 7.6
2014-Jul-13 23:26N 39°56' E 025°57'6 6.8
2014-Jul-13 22:33N 39°50' E 025°54'9 8.1
2014-Jul-13 21:30N 39°42' E 025°52'36 8.3
2014-Jul-13 17:11N 39°06' E 025°46'5 8.4
2014-Jul-13 16:33N 39°01' E 025°47'16 8.3
2014-Jul-13 14:33N 38°45' E 025°47'9 8.5
2014-Jul-13 13:33N 38°36' E 025°46'8 8.2
2014-Jul-13 12:33N 38°28' E 025°46'  
2014-Jul-09 04:29N 37°35' E 025°56'7 7.7
2014-Jul-09 03:33N 37°28' E 025°57'9 8.7
2014-Jul-09 02:33N 37°23' E 026°05'9 8.6
2014-Jul-09 01:33N 37°17' E 026°13'8 8.4
2014-Jul-09 00:33N 37°11' E 026°21'8 8.0
2014-Jul-08 23:33N 37°06' E 026°28'8 7.9
2014-Jul-08 22:31N 36°60' E 026°35'8 8.1
2014-Jul-08 21:32N 36°55' E 026°43'7 7.6
2014-Jul-08 20:33N 36°48' E 026°47'8 7.6
2014-Jul-08 19:33N 36°41' E 026°52'15 7.4
2014-Jul-08 17:29N 36°29' E 027°04'8 7.6
2014-Jul-08 16:25N 36°23' E 027°10'7 7.8
2014-Jul-08 15:33N 36°18' E 027°15'8 8.1
2014-Jul-08 14:33N 36°11' E 027°21'134 6.7
2014-Jul-07 18:32N 34°27' E 029°05'10 7.5
2014-Jul-07 17:11N 34°19' E 029°12'6 7.6
2014-Jul-07 16:22N 34°14' E 029°17'9 7.6
2014-Jul-07 15:09N 34°06' E 029°24'5 7.5
2014-Jul-07 14:33N 34°03' E 029°27'7 7.4
2014-Jul-07 13:33N 33°57' E 029°33'7 7.4
2014-Jul-07 12:33N 33°52' E 029°39'7 7.1
2014-Jul-07 11:33N 33°46' E 029°44'8 7.0
2014-Jul-07 10:23N 33°40' E 029°51'13 7.1
2014-Jul-07 08:33N 33°30' E 030°00'7 7.1
2014-Jul-07 07:33N 33°24' E 030°05'7 7.3
2014-Jul-07 06:33N 33°18' E 030°11'8 7.5
2014-Jul-07 05:33N 33°12' E 030°16'8 7.8
2014-Jul-07 04:33N 33°06' E 030°22'8 7.9
2014-Jul-07 03:32N 32°60' E 030°28'8 8.0
2014-Jul-07 02:33N 32°53' E 030°34'8 8.2
2014-Jul-07 01:33N 32°47' E 030°39'9 8.6
2014-Jul-07 00:33N 32°40' E 030°46'9 8.5
2014-Jul-06 23:33N 32°34' E 030°52'8 8.1
2014-Jul-06 22:32N 32°27' E 030°59'8 7.8
2014-Jul-06 21:33N 32°21' E 031°04'3 1.1
2014-Jul-06 18:33N 32°24' E 031°02'4 3.0
2014-Jul-06 17:09N 32°21' E 031°05'7 4.2
2014-Jul-06 15:33N 32°15' E 031°09'50 1.2
2014-Jul-04 22:29N 31°35' E 031°45'0 0.1
2014-Jul-04 21:31N 31°35' E 031°45'0 0.0
2014-Jul-04 18:15N 31°35' E 031°45'0 0.1
2014-Jul-04 17:33N 31°35' E 031°45'0 0.0
2014-Jul-04 16:08N 31°35' E 031°45'0 0.0
2014-Jul-04 15:23N 31°35' E 031°45'0 0.0
2014-Jul-04 14:31N 31°35' E 031°45'0 0.0
2014-Jul-04 13:12N 31°35' E 031°45'0 0.0
2014-Jul-04 12:33N 31°35' E 031°45'0 0.0
2014-Jul-04 11:34N 31°35' E 031°45'0 0.0
2014-Jul-04 10:28N 31°35' E 031°45'0 0.0
2014-Jul-04 09:27N 31°35' E 031°45'0 0.0
2014-Jul-04 08:33N 31°35' E 031°45'0 0.0
2014-Jul-04 05:33N 31°35' E 031°45'  

Dump ship's entire track history